createdAt,value
2023-03-16T00:02:32.722Z,7.63
2023-03-16T00:04:59.479Z,6.68
2023-03-16T00:07:26.320Z,8.20
2023-03-16T00:10:01.541Z,7.40
2023-03-16T00:12:28.420Z,6.93
2023-03-16T00:15:01.597Z,6.70
2023-03-16T00:17:28.430Z,8.32
2023-03-16T00:20:03.692Z,7.47
2023-03-16T00:22:30.842Z,7.15
2023-03-16T00:24:58.043Z,7.18
2023-03-16T00:27:32.690Z,8.52
2023-03-16T00:29:59.525Z,8.85
2023-03-16T00:32:38.938Z,6.38
2023-03-16T00:35:09.142Z,8.15
2023-03-16T00:37:37.634Z,6.68
2023-03-16T00:40:14.857Z,7.72
2023-03-16T00:42:46.814Z,9.38
2023-03-16T00:45:13.606Z,8.55
2023-03-16T00:47:48.906Z,7.25
2023-03-16T00:50:15.840Z,6.97
2023-03-16T00:52:42.766Z,7.60
2023-03-16T00:55:16.669Z,7.93
2023-03-16T00:57:43.631Z,6.70
2023-03-16T01:00:23.656Z,7.85
2023-03-16T01:02:52.334Z,7.28
2023-03-16T01:05:19.308Z,7.57
2023-03-16T01:07:56.699Z,6.65
2023-03-16T01:10:24.814Z,8.40
2023-03-16T01:12:56.249Z,6.00
2023-03-16T01:15:29.698Z,8.93
2023-03-16T01:17:57.730Z,6.63
2023-03-16T01:20:24.647Z,6.97
2023-03-16T01:22:57.659Z,8.15
2023-03-16T01:25:24.759Z,6.38
2023-03-16T01:27:59.719Z,7.22
2023-03-16T01:30:32.849Z,10.07
2023-03-16T01:32:59.630Z,8.45
2023-03-16T01:35:26.550Z,8.65
2023-03-16T01:37:59.711Z,6.93
2023-03-16T01:40:32.789Z,7.55
2023-03-16T01:43:04.981Z,8.70
2023-03-16T01:46:12.785Z,6.88
2023-03-16T01:48:56.313Z,9.55
2023-03-16T01:51:52.732Z,5.88
2023-03-16T01:54:29.842Z,6.45
2023-03-16T01:57:24.707Z,8.10
2023-03-16T01:59:54.535Z,7.03
2023-03-16T02:02:36.718Z,6.68
2023-03-16T02:05:17.216Z,5.80
2023-03-16T02:07:53.747Z,8.02
2023-03-16T02:10:21.240Z,7.35
2023-03-16T02:12:48.094Z,7.32
2023-03-16T02:15:21.824Z,8.02
2023-03-16T02:17:50.814Z,6.68
2023-03-16T02:20:48.785Z,6.35
2023-03-16T02:23:19.607Z,8.23
2023-03-16T02:26:12.906Z,7.13
2023-03-16T02:29:01.325Z,8.88
2023-03-16T02:31:34.813Z,7.95
2023-03-16T02:34:02.340Z,7.85
2023-03-16T02:36:30.015Z,8.52
2023-03-16T02:39:03.788Z,7.93
2023-03-16T02:41:32.810Z,7.85
2023-03-16T02:44:21.856Z,8.32
2023-03-16T02:47:22.792Z,7.88
2023-03-16T02:49:55.934Z,8.23
2023-03-16T02:52:28.528Z,7.25
2023-03-16T02:54:55.347Z,7.05
2023-03-16T02:57:28.825Z,8.52
2023-03-16T03:00:01.893Z,8.63
2023-03-16T03:02:28.814Z,7.00
2023-03-16T03:05:01.817Z,8.70
2023-03-16T03:07:31.877Z,7.18
2023-03-16T03:09:59.184Z,8.02
2023-03-16T03:12:32.820Z,7.72
2023-03-16T03:14:59.611Z,8.00
2023-03-16T03:17:32.425Z,7.97
2023-03-16T03:20:14.845Z,7.85
2023-03-16T03:22:42.071Z,6.68
2023-03-16T03:25:15.854Z,7.47
2023-03-16T03:27:43.697Z,9.25
2023-03-16T03:30:12.893Z,7.00
2023-03-16T03:32:48.255Z,6.32
2023-03-16T03:35:16.174Z,6.55
2023-03-16T03:37:44.312Z,7.82
2023-03-16T03:40:21.886Z,9.00
2023-03-16T03:42:51.503Z,6.85
2023-03-16T03:45:24.923Z,7.20
2023-03-16T03:47:51.862Z,8.45
2023-03-16T03:50:19.190Z,5.95
2023-03-16T03:52:52.877Z,8.38
2023-03-16T03:55:19.688Z,8.15
2023-03-16T03:57:46.404Z,6.78
2023-03-16T04:00:19.893Z,8.80
2023-03-16T04:02:47.264Z,7.70
2023-03-16T04:05:20.943Z,8.32
2023-03-16T04:07:54.983Z,7.35
2023-03-16T04:10:28.034Z,7.13
2023-03-16T04:12:59.467Z,6.78
2023-03-16T04:15:33.042Z,7.78
2023-03-16T04:18:00.307Z,10.90
2023-03-16T04:20:33.916Z,8.32
2023-03-16T04:23:07.515Z,8.02
2023-03-16T04:25:40.937Z,8.00
2023-03-16T04:28:08.152Z,7.30
2023-03-16T04:30:41.986Z,8.80
2023-03-16T04:33:09.063Z,8.95
2023-03-16T04:35:42.030Z,7.88
2023-03-16T04:38:10.610Z,9.23
2023-03-16T04:40:43.970Z,9.30
2023-03-16T04:43:10.832Z,8.55
2023-03-16T04:45:43.964Z,8.35
2023-03-16T04:48:10.772Z,7.82
2023-03-16T04:50:44.008Z,7.70
2023-03-16T04:53:10.983Z,9.15
2023-03-16T04:55:43.998Z,8.77
2023-03-16T04:58:10.705Z,8.50
2023-03-16T05:00:44.021Z,8.77
2023-03-16T05:03:16.269Z,9.05
2023-03-16T05:05:43.175Z,9.35
2023-03-16T05:08:17.031Z,9.40
2023-03-16T05:10:44.782Z,8.20
2023-03-16T05:13:17.995Z,9.27
2023-03-16T05:15:44.914Z,7.57
2023-03-16T05:18:20.108Z,8.73
2023-03-16T05:20:50.771Z,8.38
2023-03-16T05:23:24.071Z,9.23
2023-03-16T05:25:50.863Z,9.85
2023-03-16T05:28:24.025Z,7.00
2023-03-16T05:30:51.667Z,7.43
2023-03-16T05:33:35.094Z,9.00
2023-03-16T05:36:03.090Z,8.27
2023-03-16T05:38:38.100Z,7.63
2023-03-16T05:41:06.161Z,8.30
2023-03-16T05:43:41.060Z,8.32
2023-03-16T05:46:08.078Z,8.85
2023-03-16T05:48:42.290Z,8.50
2023-03-16T05:51:15.104Z,7.53
2023-03-16T05:53:48.148Z,9.50
2023-03-16T05:56:15.225Z,8.77
2023-03-16T05:58:49.121Z,7.85
2023-03-16T06:01:15.945Z,8.00
2023-03-16T06:03:49.247Z,10.13
2023-03-16T06:06:17.094Z,8.93
2023-03-16T06:08:51.126Z,8.52
2023-03-16T06:11:18.001Z,7.30
2023-03-16T06:13:45.355Z,8.55
2023-03-16T06:16:21.138Z,7.65
2023-03-16T06:18:48.003Z,9.55
2023-03-16T06:21:21.105Z,8.52
2023-03-16T06:23:48.092Z,8.15
2023-03-16T06:26:21.172Z,9.80
2023-03-16T06:28:48.902Z,9.68
2023-03-16T06:31:22.204Z,7.50
2023-03-16T06:33:49.052Z,8.23
2023-03-16T06:36:22.160Z,7.65
2023-03-16T06:38:48.882Z,6.90
2023-03-16T06:41:22.181Z,7.40
2023-03-16T06:43:49.038Z,7.35
2023-03-16T06:46:22.198Z,6.72
2023-03-16T06:48:55.195Z,8.15
2023-03-16T06:51:28.196Z,5.35
2023-03-16T06:53:54.987Z,6.70
2023-03-16T06:56:28.169Z,7.32
2023-03-16T06:58:56.064Z,7.13
2023-03-16T07:01:29.269Z,6.78
2023-03-16T07:03:56.233Z,6.07
2023-03-16T07:06:23.178Z,5.13
2023-03-16T07:08:57.274Z,5.93
2023-03-16T07:11:24.108Z,5.57
2023-03-16T07:13:58.319Z,6.20
2023-03-16T07:16:25.744Z,6.07
2023-03-16T07:18:59.297Z,7.35
2023-03-16T07:21:26.099Z,7.63
2023-03-16T07:23:59.259Z,6.07
2023-03-16T07:26:32.255Z,6.78
2023-03-16T07:28:59.363Z,7.38
2023-03-16T07:31:33.413Z,9.35
2023-03-16T07:34:07.239Z,7.00
2023-03-16T07:36:34.257Z,8.77
2023-03-16T07:39:08.399Z,7.15
2023-03-16T07:41:35.211Z,6.85
2023-03-16T07:44:08.304Z,6.72
2023-03-16T07:46:35.125Z,7.32
2023-03-16T07:49:02.571Z,6.28
2023-03-16T07:51:36.300Z,8.80
2023-03-16T07:54:11.252Z,7.40
2023-03-16T07:56:49.235Z,8.05
2023-03-16T07:59:23.351Z,5.82
2023-03-16T08:01:50.725Z,5.05
2023-03-16T08:04:24.327Z,5.50
2023-03-16T08:07:00.391Z,7.18
2023-03-16T08:09:34.393Z,7.22
2023-03-16T08:12:08.309Z,6.80
2023-03-16T08:14:35.713Z,7.82
2023-03-16T08:17:10.386Z,7.85
2023-03-16T08:19:37.195Z,6.40
2023-03-16T08:22:11.295Z,5.65
2023-03-16T08:24:38.449Z,6.38
2023-03-16T08:27:12.434Z,8.52
2023-03-16T08:29:39.459Z,5.85
2023-03-16T08:32:06.723Z,7.32
2023-03-16T08:34:40.351Z,7.78
2023-03-16T08:37:20.350Z,6.70
2023-03-16T08:39:47.212Z,7.93
2023-03-16T08:42:27.383Z,8.20
2023-03-16T08:44:55.253Z,5.85
2023-03-16T08:47:29.384Z,10.00
2023-03-16T08:50:03.390Z,6.10
2023-03-16T08:52:30.509Z,6.78
2023-03-16T08:55:04.397Z,6.55
2023-03-16T08:57:33.421Z,6.20
2023-03-16T09:00:07.429Z,6.45
2023-03-16T09:02:45.413Z,10.75
2023-03-16T09:05:14.798Z,7.22
2023-03-16T09:07:49.013Z,8.10
2023-03-16T09:10:16.358Z,6.43
2023-03-16T09:12:50.395Z,7.60
2023-03-16T09:15:17.190Z,12.45
2023-03-16T09:17:51.396Z,9.18
2023-03-16T09:20:22.697Z,6.47
2023-03-16T09:23:01.416Z,6.05
2023-03-16T09:25:28.558Z,7.75
2023-03-16T09:28:02.445Z,7.30
2023-03-16T09:30:29.776Z,4.75
2023-03-16T09:32:56.940Z,6.57
2023-03-16T09:35:30.898Z,7.18
2023-03-16T09:38:06.512Z,5.07
2023-03-16T09:40:44.996Z,6.00
2023-03-16T09:43:52.454Z,5.75
2023-03-16T09:46:39.458Z,4.55
2023-03-16T09:49:22.441Z,6.00
2023-03-16T09:52:17.099Z,6.47
2023-03-16T09:55:11.486Z,6.55
2023-03-16T09:57:43.072Z,7.63
2023-03-16T10:00:34.544Z,8.15
2023-03-16T10:03:44.598Z,5.72
2023-03-16T10:06:20.625Z,9.45
2023-03-16T10:08:53.444Z,5.90
2023-03-16T10:11:40.494Z,8.45
2023-03-16T10:14:20.003Z,5.43
2023-03-16T10:17:02.575Z,6.40
2023-03-16T10:19:32.630Z,7.07
2023-03-16T10:22:09.839Z,5.88
2023-03-16T10:24:50.161Z,7.55
2023-03-16T10:27:29.609Z,6.13
2023-03-16T10:29:56.505Z,7.00
2023-03-16T10:32:29.280Z,4.53
2023-03-16T10:35:12.794Z,7.17
2023-03-16T10:37:40.578Z,6.90
2023-03-16T10:40:09.537Z,4.82
2023-03-16T10:42:43.540Z,6.03
2023-03-16T10:45:35.230Z,5.40
2023-03-16T10:48:20.662Z,6.37
2023-03-16T10:50:54.490Z,4.72
2023-03-16T10:53:36.564Z,5.78
2023-03-16T10:56:13.225Z,5.07
2023-03-16T10:58:49.577Z,7.25
2023-03-16T11:01:20.810Z,4.65
2023-03-16T11:04:01.707Z,5.82
2023-03-16T11:06:31.450Z,5.50
2023-03-16T11:09:21.814Z,4.88
2023-03-16T11:11:50.747Z,4.75
2023-03-16T11:14:27.621Z,3.75
2023-03-16T11:17:05.963Z,5.68
2023-03-16T11:20:01.724Z,4.13
2023-03-16T11:22:30.174Z,6.63
2023-03-16T11:25:09.813Z,4.15
2023-03-16T11:27:51.590Z,6.20
2023-03-16T11:30:37.618Z,4.65
2023-03-16T11:33:18.767Z,6.85
2023-03-16T11:36:04.037Z,5.85
2023-03-16T11:39:04.684Z,4.25
2023-03-16T11:41:45.744Z,5.00
2023-03-16T11:44:48.280Z,7.60
2023-03-16T11:47:37.701Z,5.40
2023-03-16T11:50:20.344Z,5.82
2023-03-16T11:53:05.670Z,5.05
2023-03-16T11:55:35.785Z,4.63
2023-03-16T11:58:28.701Z,5.93
2023-03-16T12:01:12.429Z,4.38
2023-03-16T12:04:00.703Z,4.85
2023-03-16T12:06:53.629Z,5.63
2023-03-16T12:09:45.679Z,4.93
2023-03-16T12:12:28.471Z,5.18
2023-03-16T12:15:39.702Z,9.55
2023-03-16T12:18:21.277Z,4.53
2023-03-16T12:21:08.686Z,4.03
2023-03-16T12:23:41.779Z,6.45
2023-03-16T12:26:15.706Z,4.85
2023-03-16T12:28:43.924Z,6.18
2023-03-16T12:31:25.840Z,3.85
2023-03-16T12:34:04.024Z,4.00
2023-03-16T12:36:56.724Z,5.25
2023-03-16T12:42:07.823Z,4.53
2023-03-16T12:44:53.409Z,4.93
2023-03-16T12:47:40.724Z,5.10
2023-03-16T12:50:15.304Z,4.72
2023-03-16T12:52:51.005Z,3.63
2023-03-16T12:55:21.016Z,4.68
2023-03-16T12:57:58.076Z,5.85
2023-03-16T13:00:35.877Z,4.40
2023-03-16T13:03:11.066Z,3.67
2023-03-16T13:05:45.839Z,3.55
2023-03-16T13:08:24.999Z,4.00
2023-03-16T13:11:14.327Z,3.28
2023-03-16T13:14:08.035Z,4.70
2023-03-16T13:16:37.541Z,3.75
2023-03-16T13:19:34.785Z,5.13
2023-03-16T13:22:19.443Z,4.35
2023-03-16T13:25:21.917Z,5.03
2023-03-16T13:27:59.560Z,3.25
2023-03-16T13:30:38.894Z,5.32
2023-03-16T13:33:28.805Z,5.57
2023-03-16T13:35:57.558Z,4.80
2023-03-16T13:38:35.112Z,4.25
2023-03-16T13:41:08.936Z,3.33
2023-03-16T13:43:45.857Z,5.53
2023-03-16T13:46:17.773Z,4.65
2023-03-16T13:48:54.117Z,3.92
2023-03-16T13:51:22.788Z,3.67
2023-03-16T13:53:50.889Z,4.47
2023-03-16T13:56:34.870Z,4.93
2023-03-16T13:59:08.936Z,3.67
2023-03-16T14:01:36.076Z,4.20
2023-03-16T14:04:08.916Z,4.43
2023-03-16T14:06:42.930Z,4.45
2023-03-16T14:09:23.878Z,4.53
2023-03-16T14:11:58.157Z,4.70
2023-03-16T14:14:29.368Z,5.20
2023-03-16T14:17:17.961Z,5.47
2023-03-16T14:19:50.606Z,3.30
2023-03-16T14:22:40.904Z,3.63
2023-03-16T14:25:16.570Z,4.05
2023-03-16T14:27:53.217Z,4.70
2023-03-16T14:30:26.193Z,3.58
2023-03-16T14:33:26.896Z,5.18
2023-03-16T14:36:05.930Z,3.25
2023-03-16T14:38:41.328Z,3.60
2023-03-16T14:41:27.121Z,3.42
2023-03-16T14:44:01.829Z,3.47
2023-03-16T14:46:48.929Z,3.42
2023-03-16T14:49:23.614Z,4.32
2023-03-16T14:51:59.962Z,3.70
2023-03-16T14:54:28.003Z,3.30
2023-03-16T14:57:07.060Z,4.78
2023-03-16T14:59:34.382Z,5.63
2023-03-16T15:02:10.933Z,4.60
2023-03-16T15:04:38.161Z,5.35
2023-03-16T15:07:32.049Z,4.68
2023-03-16T15:10:07.173Z,3.35
2023-03-16T15:12:43.979Z,2.72
2023-03-16T15:15:16.641Z,4.22
2023-03-16T15:17:50.999Z,3.88
2023-03-16T15:20:22.649Z,4.28
2023-03-16T15:22:59.099Z,3.28
2023-03-16T15:25:37.474Z,3.80
2023-03-16T15:28:28.031Z,3.58
2023-03-16T15:30:57.399Z,3.30
2023-03-16T15:33:25.855Z,2.25
2023-03-16T15:36:02.152Z,4.75
2023-03-16T15:38:43.043Z,5.03
2023-03-16T15:41:11.653Z,4.13
2023-03-16T15:43:39.662Z,3.55
2023-03-16T15:46:14.360Z,3.58
2023-03-16T15:48:41.543Z,3.65
2023-03-16T15:51:34.189Z,3.55
2023-03-16T15:54:04.206Z,4.80
2023-03-16T15:56:52.774Z,5.28
2023-03-16T15:59:22.177Z,3.75
2023-03-16T16:01:57.144Z,2.95
2023-03-16T16:04:25.109Z,3.90
2023-03-16T16:06:55.210Z,2.92
2023-03-16T16:09:30.067Z,3.45
2023-03-16T16:11:57.121Z,2.47
2023-03-16T16:14:25.377Z,2.55
2023-03-16T16:17:01.028Z,2.72
2023-03-16T16:19:36.040Z,3.50
2023-03-16T16:22:03.472Z,3.15
2023-03-16T16:24:37.343Z,4.57
2023-03-16T16:27:04.650Z,2.10
2023-03-16T16:29:33.805Z,3.58
2023-03-16T16:32:08.139Z,3.72
2023-03-16T16:34:42.815Z,2.35
2023-03-16T16:37:10.852Z,4.55
2023-03-16T16:39:44.091Z,3.53
2023-03-16T16:42:23.178Z,4.57
2023-03-16T16:44:51.579Z,2.42
2023-03-16T16:47:28.084Z,2.63
2023-03-16T16:50:01.239Z,3.20
2023-03-16T16:52:28.098Z,3.38
2023-03-16T16:54:54.897Z,2.40
2023-03-16T16:57:28.143Z,2.10
2023-03-16T16:59:54.939Z,2.90
2023-03-16T17:02:45.240Z,3.10
2023-03-16T17:05:27.135Z,2.47
2023-03-16T17:08:01.128Z,3.53
2023-03-16T17:10:28.294Z,3.90
2023-03-16T17:12:57.066Z,2.65
2023-03-16T17:15:34.127Z,2.58
2023-03-16T17:18:10.567Z,3.17
2023-03-16T17:20:47.126Z,2.88
2023-03-16T17:23:26.036Z,2.63
2023-03-16T17:26:02.145Z,4.25
2023-03-16T17:28:32.990Z,2.70
2023-03-16T17:30:59.793Z,4.25
2023-03-16T17:33:35.314Z,3.35
2023-03-16T17:36:02.611Z,3.63
2023-03-16T17:38:29.493Z,1.60
2023-03-16T17:41:03.490Z,3.92
2023-03-16T17:43:31.870Z,2.17
2023-03-16T17:46:00.189Z,2.05
2023-03-16T17:48:34.469Z,2.97
2023-03-16T17:51:01.462Z,2.78
2023-03-16T17:53:28.336Z,4.45
2023-03-16T17:56:02.506Z,2.50
2023-03-16T17:58:33.078Z,3.47
2023-03-16T18:01:01.477Z,3.03
2023-03-16T18:03:35.270Z,3.95
2023-03-16T18:06:08.219Z,3.03
2023-03-16T18:08:36.053Z,3.17
2023-03-16T18:11:13.270Z,2.75
2023-03-16T18:13:41.161Z,2.72
2023-03-16T18:16:08.684Z,3.92
2023-03-16T18:18:48.241Z,4.25
2023-03-16T18:21:24.513Z,4.43
2023-03-16T18:24:01.283Z,3.60
2023-03-16T18:26:35.259Z,2.40
2023-03-16T18:29:08.246Z,2.83
2023-03-16T18:31:35.636Z,3.72
2023-03-16T18:34:06.281Z,4.30
2023-03-16T18:36:42.394Z,2.83
2023-03-16T18:39:17.063Z,2.67
2023-03-16T18:41:51.259Z,3.20
2023-03-16T18:44:29.829Z,2.85
2023-03-16T18:47:09.295Z,4.75
2023-03-16T18:49:37.011Z,2.53
2023-03-16T18:52:21.539Z,3.42
2023-03-16T18:54:49.342Z,3.85
2023-03-16T18:57:19.078Z,3.00
2023-03-16T18:59:53.510Z,3.08
2023-03-16T19:02:38.752Z,3.00
2023-03-16T19:05:26.699Z,5.10
2023-03-16T19:07:53.733Z,3.97
2023-03-16T19:10:39.496Z,3.50
2023-03-16T19:13:17.271Z,4.53
2023-03-16T19:15:50.479Z,3.97
2023-03-16T19:18:24.464Z,4.00
2023-03-16T19:20:52.551Z,2.88
2023-03-16T19:23:35.349Z,2.78
2023-03-16T19:26:02.965Z,3.00
2023-03-16T19:28:34.173Z,2.95
2023-03-16T19:31:10.719Z,3.28
2023-03-16T19:33:38.859Z,2.42
2023-03-16T19:36:20.359Z,3.42
2023-03-16T19:38:50.373Z,2.58
2023-03-16T19:41:33.391Z,3.85
2023-03-16T19:44:21.326Z,3.58
2023-03-16T19:46:55.433Z,2.80
2023-03-16T19:49:32.545Z,2.90
2023-03-16T19:52:02.408Z,3.95
2023-03-16T19:54:41.544Z,2.75
2023-03-16T19:57:14.440Z,2.83
2023-03-16T19:59:49.455Z,3.65
2023-03-16T20:02:30.258Z,3.72
2023-03-16T20:05:04.426Z,2.78
2023-03-16T20:07:38.203Z,2.90
2023-03-16T20:10:13.595Z,3.88
2023-03-16T20:12:42.059Z,3.22
2023-03-16T20:15:24.803Z,4.20
2023-03-16T20:17:57.178Z,4.43
2023-03-16T20:20:34.629Z,6.45
2023-03-16T20:23:02.128Z,4.03
2023-03-16T20:25:44.528Z,3.88
2023-03-16T20:28:20.645Z,4.10
2023-03-16T20:30:55.497Z,4.18
2023-03-16T20:33:26.881Z,3.90
2023-03-16T20:35:53.864Z,3.30
2023-03-16T20:38:28.497Z,3.67
2023-03-16T20:40:55.944Z,4.57
2023-03-16T20:43:38.536Z,4.38
2023-03-16T20:48:32.713Z,4.78
2023-03-16T20:51:07.489Z,5.15
2023-03-16T20:53:34.431Z,3.83
2023-03-16T20:56:01.661Z,5.95
2023-03-16T20:58:36.861Z,5.22
2023-03-16T21:01:03.793Z,3.70
2023-03-16T21:03:33.350Z,3.47
2023-03-16T21:06:06.506Z,4.35
2023-03-16T21:08:33.300Z,4.43
2023-03-16T21:11:06.791Z,3.08
2023-03-16T21:13:39.452Z,3.30
2023-03-16T21:16:13.524Z,4.60
2023-03-16T21:18:46.627Z,3.88
2023-03-16T21:21:15.717Z,5.00
2023-03-16T21:23:43.498Z,3.30
2023-03-16T21:26:35.536Z,4.07
2023-03-16T21:29:06.693Z,3.28
2023-03-16T21:34:08.528Z,3.58
2023-03-16T21:36:44.254Z,4.50
2023-03-16T21:39:19.697Z,4.30
2023-03-16T21:41:53.664Z,5.40
2023-03-16T21:44:20.958Z,4.80
2023-03-16T21:46:54.710Z,4.47
2023-03-16T21:49:21.707Z,5.20
2023-03-16T21:51:50.078Z,3.72
2023-03-16T21:54:24.580Z,3.53
2023-03-16T21:56:51.436Z,4.18
2023-03-16T21:59:24.618Z,4.07
2023-03-16T22:02:01.604Z,3.95
2023-03-16T22:04:36.623Z,4.00
2023-03-16T22:07:09.094Z,3.65
2023-03-16T22:12:14.149Z,4.10
2023-03-16T22:14:47.582Z,3.95
2023-03-16T22:17:22.387Z,3.78
2023-03-16T22:19:55.613Z,4.00
2023-03-16T22:22:22.585Z,4.32
2023-03-16T22:24:55.630Z,3.33
2023-03-16T22:27:30.083Z,4.30
2023-03-16T22:30:04.650Z,4.28
2023-03-16T22:32:33.413Z,5.15
2023-03-16T22:35:06.633Z,4.57
2023-03-16T22:37:33.888Z,3.03
2023-03-16T22:40:08.634Z,4.22
2023-03-16T22:42:45.663Z,3.33
2023-03-16T22:45:25.160Z,3.88
2023-03-16T22:48:05.661Z,4.10
2023-03-16T22:50:35.504Z,3.50
2023-03-16T22:53:13.661Z,4.25
2023-03-16T22:55:40.924Z,5.28
2023-03-16T22:58:18.649Z,3.88
2023-03-16T23:00:45.568Z,3.90
2023-03-16T23:03:27.686Z,3.65
2023-03-16T23:05:54.630Z,3.10
2023-03-16T23:08:29.717Z,3.45
2023-03-16T23:10:56.936Z,3.67
2023-03-16T23:13:31.687Z,3.40
2023-03-16T23:15:58.412Z,4.72
2023-03-16T23:18:32.696Z,3.85
2023-03-16T23:20:59.472Z,3.33
2023-03-16T23:23:32.706Z,6.43
2023-03-16T23:25:59.776Z,4.47
2023-03-16T23:28:32.728Z,3.97
2023-03-16T23:30:59.544Z,4.30
2023-03-16T23:33:34.692Z,4.85
2023-03-16T23:36:01.573Z,4.50
2023-03-16T23:38:34.726Z,4.75
2023-03-16T23:41:01.659Z,4.50
2023-03-16T23:43:34.870Z,3.90
2023-03-16T23:46:02.109Z,5.18
2023-03-16T23:48:29.408Z,3.80
2023-03-16T23:51:02.775Z,3.88
2023-03-16T23:53:30.152Z,4.15
2023-03-16T23:56:03.848Z,3.60
2023-03-16T23:58:36.735Z,3.40
